ěÝzenÝ letovÚho provozu ╚eskÚ republiky
Letiste: LKPR Aktualizace: 28.11.2021 00:00:29  UTC
 METAR LKPR 28.11. 00:00 ...
METAR LKPR 280000Z 17005KT 9999 FEW024 01/M01 Q0995 NOSIG RMK REG QNH 0993=
 TAF LKPR 27.11. 23:00 ...
TAF LKPR 272300Z 2800/2906 17008KT 9999 BKN025      PROB30 TEMPO 2800/2805 4000 -SN BR BKN012      BECMG 2805/2808 25008KT 4000 BR BKN012      TEMPO 2810/2818 2000 -SN BR BKN007      PROB30 TEMPO 2811/2815 1200 SN BR BKN004      BECMG 2819/2822 5000 BR BKN008=